CheckWX is a tool to help pilots better visualize weather data.  It is not intended as a substitute for an official pre-flight weather briefing.

03:27:06 UTC

HTKJ METAR
Kilimanjaro International Airport
Arusha, Tanzania
Current

1 hour ago

HTKJ 270200Z 00000KT 9999 BKN024 20/19 Q1017 NOSIG
Observed
May-27 @ 02:00 UTC
Visibility
10,000+ meters
Flight Rules
MVFR
Cloud Levels
  • Broken at 2,400' AGL
Temperature
20°C / 68°F
Dewpoint
19°C / 66°F
Humidity
94%
Altimeter
30.03" Hg
Pressure
1016.92 hPa
Previous

2 hours ago

HTKJ 270100Z 00000KT 9999 BKN024 19/19 Q1016 NOSIG
Observed
May-27 @ 01:00 UTC
Visibility
10,000+ meters
Flight Rules
MVFR
Cloud Levels
  • Broken at 2,400' AGL
Temperature
19°C / 66°F
Dewpoint
19°C / 66°F
Humidity
100%
Altimeter
30" Hg
Pressure
1015.92 hPa
Previous

3 hours ago

HTKJ 270000Z 00000KT 9999 BKN024 SCT080 20/19 Q1016 NOSIG
Observed
May-27 @ 00:00 UTC
Visibility
10,000+ meters
Flight Rules
MVFR
Cloud Levels
  • Broken at 2,400' AGL
  • Scattered at 8,000' AGL
Temperature
20°C / 68°F
Dewpoint
19°C / 66°F
Humidity
94%
Altimeter
30" Hg
Pressure
1015.92 hPa